Time;durP1;ratioP1;P1;durP2;ratioP2;P2;SDS_P1;SDS_P2;PMS_P1;PMS_P2;Temp;Humidity;BMP_temperature;BMP_pressure;BME280_temperature;BME280_humidity;BME280_pressure;Samples;Min_cycle;Max_cycle;Signal;HPM_P1;HPM_P2
2024/01/28 00:01:40;;;;;;;10.38;5.68;;;2.50;99.90;;;;;;5103015;28;20054;-34
2024/01/28 00:04:06;;;;;;;10.48;6.22;;;2.50;99.90;;;;;;5102368;28;20077;-33
2024/01/28 00:06:32;;;;;;;15.07;6.63;;;2.50;99.90;;;;;;5101671;28;20036;-36
2024/01/28 00:08:57;;;;;;;12.43;6.00;;;2.60;99.90;;;;;;5102266;28;20035;-37
2024/01/28 00:11:23;;;;;;;9.57;5.88;;;2.60;99.90;;;;;;5101193;28;20024;-36
2024/01/28 00:13:51;;;;;;;10.30;6.22;;;2.70;99.90;;;;;;5102199;28;20036;-36
2024/01/28 00:16:18;;;;;;;10.85;6.05;;;2.70;99.90;;;;;;5101401;28;20028;-37
2024/01/28 00:18:43;;;;;;;11.52;6.80;;;2.70;99.90;;;;;;5100885;28;20042;-37
2024/01/28 00:21:09;;;;;;;11.48;6.53;;;2.70;99.90;;;;;;5101957;28;20454;-34
2024/01/28 00:23:35;;;;;;;9.93;5.90;;;2.70;99.90;;;;;;5101518;28;20057;-35
2024/01/28 00:26:04;;;;;;;9.15;5.40;;;2.70;99.90;;;;;;5102000;28;20024;-34
2024/01/28 00:28:29;;;;;;;9.45;5.78;;;2.70;99.90;;;;;;5101656;28;20081;-36
2024/01/28 00:30:57;;;;;;;11.05;6.38;;;2.70;99.90;;;;;;5101422;28;20031;-34
2024/01/28 00:33:23;;;;;;;11.23;6.68;;;2.70;99.90;;;;;;5101967;28;20395;-32
2024/01/28 00:35:49;;;;;;;14.57;7.28;;;2.70;99.90;;;;;;5102170;28;20583;-32
2024/01/28 00:38:14;;;;;;;16.83;7.93;;;2.70;99.90;;;;;;5100607;28;20032;-31
2024/01/28 00:40:40;;;;;;;16.20;7.95;;;2.60;99.90;;;;;;5102419;28;20036;-38
2024/01/28 00:43:11;;;;;;;17.85;8.40;;;2.70;99.90;;;;;;5100904;28;20028;-36
2024/01/28 00:45:40;;;;;;;12.70;7.75;;;2.70;99.90;;;;;;5101263;28;20023;-33
2024/01/28 00:48:06;;;;;;;14.40;7.78;;;2.70;99.90;;;;;;5100966;28;20032;-36
2024/01/28 00:50:31;;;;;;;13.52;8.38;;;2.70;99.90;;;;;;5101176;28;20704;-34
2024/01/28 00:52:57;;;;;;;14.20;7.82;;;2.70;99.90;;;;;;5100591;28;20035;-35
2024/01/28 00:55:22;;;;;;;15.80;8.07;;;2.70;99.90;;;;;;5101074;28;20023;-32
2024/01/28 00:57:48;;;;;;;14.18;8.25;;;2.70;99.90;;;;;;5101471;28;20835;-33
2024/01/28 01:00:15;;;;;;;11.18;6.95;;;2.70;99.90;;;;;;5099461;28;20036;-31
2024/01/28 01:02:40;;;;;;;11.93;6.63;;;2.70;99.90;;;;;;5102265;28;20028;-34
2024/01/28 01:05:06;;;;;;;11.95;6.80;;;2.80;99.90;;;;;;5100910;28;20030;-31
2024/01/28 01:07:32;;;;;;;9.35;6.05;;;2.70;99.90;;;;;;5100201;28;20035;-35
2024/01/28 01:09:57;;;;;;;11.70;6.82;;;2.70;99.90;;;;;;5100496;28;20107;-36
2024/01/28 01:12:23;;;;;;;15.18;6.10;;;2.70;99.90;;;;;;5099936;28;20031;-32
2024/01/28 01:14:49;;;;;;;12.10;6.75;;;2.70;99.90;;;;;;5101377;28;20046;-37
2024/01/28 01:17:14;;;;;;;11.18;6.55;;;2.70;99.90;;;;;;5099529;28;20481;-30
2024/01/28 01:19:40;;;;;;;10.00;5.88;;;2.60;99.90;;;;;;5100638;28;20019;-32
2024/01/28 01:22:06;;;;;;;11.13;6.72;;;2.60;99.90;;;;;;5101001;28;20119;-33
2024/01/28 01:24:31;;;;;;;10.75;7.35;;;2.60;99.90;;;;;;5100523;28;20034;-34
2024/01/28 01:27:00;;;;;;;13.10;6.95;;;2.60;99.90;;;;;;5099864;28;20435;-35
2024/01/28 01:29:25;;;;;;;12.70;7.88;;;2.60;99.90;;;;;;5100432;28;20019;-34
2024/01/28 01:31:51;;;;;;;17.10;7.20;;;2.60;99.90;;;;;;5099910;28;20604;-31
2024/01/28 01:34:17;;;;;;;13.05;7.10;;;2.50;99.90;;;;;;5099931;28;20424;-36
2024/01/28 01:36:46;;;;;;;16.40;7.07;;;2.60;99.90;;;;;;5100954;28;20458;-33
2024/01/28 01:39:16;;;;;;;14.15;6.50;;;2.50;99.90;;;;;;5100777;28;20048;-33
2024/01/28 01:41:45;;;;;;;10.30;6.55;;;2.60;99.90;;;;;;5100507;28;20027;-35
2024/01/28 01:44:11;;;;;;;14.95;6.60;;;2.50;99.90;;;;;;5100770;28;20028;-37
2024/01/28 01:46:38;;;;;;;9.35;6.22;;;2.50;99.90;;;;;;5100785;28;20039;-32
2024/01/28 01:49:04;;;;;;;10.73;6.50;;;2.50;99.90;;;;;;5100499;28;20028;-34
2024/01/28 01:51:30;;;;;;;12.77;6.78;;;2.50;99.90;;;;;;5100334;28;20035;-37
2024/01/28 01:53:56;;;;;;;15.18;7.25;;;2.60;99.90;;;;;;5100572;28;20023;-32
2024/01/28 01:56:23;;;;;;;10.57;6.63;;;2.50;99.90;;;;;;5099380;28;20686;-37
2024/01/28 01:58:49;;;;;;;11.57;6.88;;;2.50;99.90;;;;;;5100682;28;20470;-34
2024/01/28 02:01:16;;;;;;;13.88;6.72;;;2.50;99.90;;;;;;5100282;28;20030;-36
2024/01/28 02:03:42;;;;;;;10.75;6.47;;;2.50;99.90;;;;;;5100225;28;20035;-36
2024/01/28 02:06:10;;;;;;;12.95;7.35;;;2.50;99.90;;;;;;5099850;28;20031;-35
2024/01/28 02:08:36;;;;;;;11.35;6.72;;;2.50;99.90;;;;;;5099997;28;20187;-37
2024/01/28 02:11:04;;;;;;;9.75;5.82;;;2.50;99.90;;;;;;5098246;28;20076;-37
2024/01/28 02:13:30;;;;;;;11.27;6.25;;;2.50;99.90;;;;;;5099630;28;20038;-36
2024/01/28 02:15:56;;;;;;;8.30;5.32;;;2.50;99.90;;;;;;5099169;28;20652;-36
2024/01/28 02:18:21;;;;;;;8.68;5.35;;;2.50;99.90;;;;;;5099011;28;20035;-35
2024/01/28 02:20:47;;;;;;;8.93;4.97;;;2.40;99.90;;;;;;5099830;28;20525;-34
2024/01/28 02:23:21;;;;;;;8.80;5.20;;;2.40;99.90;;;;;;5099009;28;20106;-36
2024/01/28 02:25:47;;;;;;;7.38;4.93;;;2.30;99.90;;;;;;5100443;28;20047;-36
2024/01/28 02:28:12;;;;;;;6.65;5.05;;;2.30;99.90;;;;;;5099299;28;20036;-37
2024/01/28 02:30:41;;;;;;;7.63;4.50;;;2.30;99.90;;;;;;5099602;28;20023;-34
2024/01/28 02:33:06;;;;;;;8.82;4.70;;;2.20;99.90;;;;;;5098627;28;20150;-34
2024/01/28 02:35:32;;;;;;;8.70;5.28;;;2.20;99.90;;;;;;5099514;28;20047;-34
2024/01/28 02:37:58;;;;;;;9.85;5.00;;;2.20;99.90;;;;;;5099553;28;20023;-37
2024/01/28 02:40:23;;;;;;;8.25;5.03;;;2.10;99.90;;;;;;5099425;28;20047;-35
2024/01/28 02:42:49;;;;;;;8.18;4.90;;;2.10;99.90;;;;;;5099962;28;20028;-34
2024/01/28 02:45:14;;;;;;;11.30;6.32;;;2.10;99.90;;;;;;5098237;28;20106;-32
2024/01/28 02:47:40;;;;;;;17.20;8.32;;;2.10;99.90;;;;;;5099489;28;20044;-38
2024/01/28 02:50:07;;;;;;;12.73;7.10;;;2.10;99.90;;;;;;5099359;28;20023;-33
2024/01/28 02:52:35;;;;;;;10.85;7.15;;;2.10;99.90;;;;;;5099122;28;20040;-37
2024/01/28 02:55:01;;;;;;;13.73;6.63;;;2.10;99.90;;;;;;5099112;28;20027;-36
2024/01/28 02:57:26;;;;;;;12.50;6.45;;;2.20;99.90;;;;;;5098246;28;20030;-33
2024/01/28 02:59:52;;;;;;;13.80;6.60;;;2.20;99.90;;;;;;5099023;28;20027;-38
2024/01/28 03:02:18;;;;;;;17.65;8.48;;;2.20;99.90;;;;;;5098920;28;20032;-30
2024/01/28 03:04:44;;;;;;;14.00;7.78;;;2.20;99.90;;;;;;5100036;28;20027;-32
2024/01/28 03:07:09;;;;;;;14.18;7.65;;;2.20;99.90;;;;;;5098182;28;20069;-31
2024/01/28 03:09:35;;;;;;;12.45;7.53;;;2.20;99.90;;;;;;5098175;28;20069;-35
2024/01/28 03:12:00;;;;;;;14.15;6.82;;;2.20;99.90;;;;;;5098683;28;20032;-37
2024/01/28 03:14:26;;;;;;;14.82;6.78;;;2.20;99.90;;;;;;5098754;28;20083;-35
2024/01/28 03:16:52;;;;;;;13.65;6.70;;;2.20;99.90;;;;;;5097823;28;20035;-34
2024/01/28 03:19:19;;;;;;;13.55;6.78;;;2.20;99.90;;;;;;5098134;28;20044;-35
2024/01/28 03:21:44;;;;;;;10.38;6.00;;;2.20;99.90;;;;;;5099412;28;20031;-35
2024/01/28 03:24:10;;;;;;;11.05;6.50;;;2.20;99.90;;;;;;5100069;28;20016;-32
2024/01/28 03:26:37;;;;;;;11.00;6.43;;;2.20;99.90;;;;;;5102604;28;20050;-36
2024/01/28 03:29:04;;;;;;;13.07;7.75;;;2.20;99.90;;;;;;5102845;28;20020;-33
2024/01/28 03:31:30;;;;;;;12.80;7.50;;;2.20;99.90;;;;;;5102989;28;20031;-31
2024/01/28 03:33:57;;;;;;;14.75;7.30;;;2.20;99.90;;;;;;5101961;28;20031;-33
2024/01/28 03:36:24;;;;;;;15.75;7.40;;;2.20;99.90;;;;;;5102560;28;20019;-36
2024/01/28 03:38:49;;;;;;;12.35;7.25;;;2.20;99.90;;;;;;5103249;28;20118;-36
2024/01/28 03:41:16;;;;;;;13.52;6.82;;;2.20;99.90;;;;;;5101693;28;20034;-36
2024/01/28 03:43:46;;;;;;;15.63;7.28;;;2.20;99.90;;;;;;5102414;28;20039;-33
2024/01/28 03:46:12;;;;;;;16.48;9.15;;;2.20;99.90;;;;;;5102154;28;20029;-33
2024/01/28 03:48:37;;;;;;;13.65;8.30;;;2.20;99.90;;;;;;5102388;28;20248;-36
2024/01/28 03:51:03;;;;;;;13.38;7.30;;;2.20;99.90;;;;;;5102654;28;20093;-35
2024/01/28 03:53:29;;;;;;;9.98;6.45;;;2.10;99.90;;;;;;5102614;28;20035;-36
2024/01/28 03:55:54;;;;;;;13.77;6.38;;;2.10;99.90;;;;;;5101459;28;20034;-35
2024/01/28 03:58:21;;;;;;;10.05;5.25;;;2.10;99.90;;;;;;5101903;28;20034;-34
2024/01/28 04:00:47;;;;;;;11.30;5.88;;;2.10;99.90;;;;;;5102789;28;20035;-35
2024/01/28 04:03:13;;;;;;;9.30;5.95;;;2.10;99.90;;;;;;5101765;28;20031;-35
2024/01/28 04:05:38;;;;;;;10.82;5.85;;;2.10;99.90;;;;;;5102651;28;20469;-35
2024/01/28 04:08:10;;;;;;;16.33;5.63;;;2.10;99.90;;;;;;5102281;28;20031;-34
2024/01/28 04:10:36;;;;;;;12.90;6.55;;;2.00;99.90;;;;;;5101655;28;20023;-36
2024/01/28 04:13:02;;;;;;;12.38;6.82;;;2.00;99.90;;;;;;5102080;28;20643;-36
2024/01/28 04:15:27;;;;;;;15.05;7.22;;;2.00;99.90;;;;;;5101434;28;20039;-34
2024/01/28 04:17:56;;;;;;;13.55;6.72;;;2.00;99.90;;;;;;5102459;28;20089;-33
2024/01/28 04:20:22;;;;;;;14.45;6.72;;;2.00;99.90;;;;;;5102045;28;20088;-31
2024/01/28 04:22:47;;;;;;;13.38;6.45;;;2.00;99.90;;;;;;5101614;28;20031;-30
2024/01/28 04:25:13;;;;;;;11.05;5.47;;;2.00;99.90;;;;;;5101997;28;20105;-34
2024/01/28 04:27:39;;;;;;;13.73;6.13;;;2.00;99.90;;;;;;5102458;28;20080;-32
2024/01/28 04:30:06;;;;;;;10.32;6.10;;;2.00;99.90;;;;;;5100917;28;20489;-32
2024/01/28 04:32:32;;;;;;;13.98;7.28;;;2.00;99.90;;;;;;5101359;28;20375;-32
2024/01/28 04:34:57;;;;;;;18.20;7.85;;;2.00;99.90;;;;;;5101158;28;20027;-32
2024/01/28 04:37:26;;;;;;;15.45;7.40;;;2.00;99.90;;;;;;5100907;28;20038;-32
2024/01/28 04:39:51;;;;;;;13.68;6.60;;;2.00;99.90;;;;;;5101341;28;20031;-33
2024/01/28 04:42:22;;;;;;;15.98;7.18;;;2.00;99.90;;;;;;5101483;28;20498;-36
2024/01/28 04:44:48;;;;;;;14.48;7.45;;;2.00;99.90;;;;;;5081394;28;20162;-31
2024/01/28 04:47:13;;;;;;;17.63;8.30;;;2.00;99.90;;;;;;5095053;28;20975;-35
2024/01/28 04:49:39;;;;;;;18.13;7.10;;;2.00;99.90;;;;;;5102020;28;20039;-32
2024/01/28 04:52:05;;;;;;;14.82;6.97;;;2.00;99.90;;;;;;5101158;28;20023;-32
2024/01/28 04:54:30;;;;;;;14.48;7.03;;;2.00;99.90;;;;;;5101162;28;20019;-31
2024/01/28 04:56:56;;;;;;;14.30;7.68;;;2.00;99.90;;;;;;5101252;28;20024;-33
2024/01/28 04:59:22;;;;;;;13.02;7.65;;;2.00;99.90;;;;;;5100376;28;20390;-36
2024/01/28 05:01:47;;;;;;;14.85;6.75;;;2.10;99.90;;;;;;5101674;28;20019;-36
2024/01/28 05:04:13;;;;;;;13.35;6.85;;;2.10;99.90;;;;;;5101165;28;20027;-37
2024/01/28 05:06:38;;;;;;;10.85;6.10;;;2.10;99.90;;;;;;5099302;28;20108;-36
2024/01/28 05:09:10;;;;;;;13.73;6.32;;;2.10;99.90;;;;;;5101277;28;20058;-37
2024/01/28 05:11:39;;;;;;;12.30;6.00;;;2.10;99.90;;;;;;5100454;28;20019;-34
2024/01/28 05:14:04;;;;;;;10.35;5.95;;;2.00;99.90;;;;;;5100360;28;20506;-32
2024/01/28 05:16:31;;;;;;;10.27;5.88;;;2.10;99.90;;;;;;5101026;28;20053;-32
2024/01/28 05:18:56;;;;;;;7.10;5.25;;;2.10;99.90;;;;;;5100153;28;20060;-36
2024/01/28 05:21:25;;;;;;;11.50;6.28;;;2.10;99.90;;;;;;5101246;28;20023;-34
2024/01/28 05:23:50;;;;;;;11.63;5.32;;;2.10;99.90;;;;;;5100594;28;20042;-35
2024/01/28 05:26:17;;;;;;;9.95;5.25;;;2.00;99.90;;;;;;5099835;28;20031;-30
2024/01/28 05:28:44;;;;;;;9.75;5.18;;;2.00;99.90;;;;;;5100634;28;20066;-34
2024/01/28 05:31:10;;;;;;;10.23;5.40;;;2.10;99.90;;;;;;5101014;28;20031;-33
2024/01/28 05:33:37;;;;;;;11.35;5.13;;;2.10;99.90;;;;;;5100283;28;20092;-35
2024/01/28 05:36:13;;;;;;;10.93;5.70;;;2.10;99.90;;;;;;5099433;28;20091;-36
2024/01/28 05:38:39;;;;;;;11.98;6.15;;;2.10;99.90;;;;;;5100526;28;20027;-32
2024/01/28 05:41:05;;;;;;;13.55;6.50;;;2.00;99.90;;;;;;5100379;28;20023;-36
2024/01/28 05:43:31;;;;;;;12.73;6.28;;;2.10;99.90;;;;;;5099891;28;20028;-36
2024/01/28 05:45:57;;;;;;;13.38;6.43;;;2.00;99.90;;;;;;5100331;28;20050;-37
2024/01/28 05:48:23;;;;;;;9.70;5.40;;;2.00;99.90;;;;;;5099944;28;20679;-35
2024/01/28 05:50:51;;;;;;;11.18;5.95;;;2.00;99.90;;;;;;5100530;28;20020;-31
2024/01/28 05:53:17;;;;;;;10.43;5.70;;;2.00;99.90;;;;;;5099560;28;20131;-35
2024/01/28 05:55:42;;;;;;;9.07;5.22;;;2.00;99.90;;;;;;5100312;28;20118;-33
2024/01/28 05:58:08;;;;;;;11.40;5.90;;;2.00;99.90;;;;;;5099437;28;20027;-33
2024/01/28 06:00:33;;;;;;;10.00;6.40;;;2.00;99.90;;;;;;5099580;28;20118;-34
2024/01/28 06:02:59;;;;;;;14.02;5.70;;;2.00;99.90;;;;;;5099693;28;20111;-32
2024/01/28 06:05:25;;;;;;;12.68;6.10;;;2.00;99.90;;;;;;5099654;28;20081;-34
2024/01/28 06:07:51;;;;;;;14.48;6.40;;;2.00;99.90;;;;;;5100920;28;20898;-37
2024/01/28 06:10:16;;;;;;;8.65;5.53;;;2.00;99.90;;;;;;5099988;28;20682;-33
2024/01/28 06:12:42;;;;;;;8.75;5.30;;;2.00;99.90;;;;;;5100257;28;20059;-30
2024/01/28 06:15:08;;;;;;;10.43;5.60;;;2.00;99.90;;;;;;5098973;28;20100;-30
2024/01/28 06:17:38;;;;;;;9.05;5.55;;;2.00;99.90;;;;;;5099841;28;20028;-35
2024/01/28 06:20:05;;;;;;;13.27;5.50;;;2.00;99.90;;;;;;5100284;28;20024;-32
2024/01/28 06:22:31;;;;;;;12.38;6.32;;;2.00;99.90;;;;;;5100018;28;20032;-32
2024/01/28 06:24:58;;;;;;;10.80;5.90;;;2.00;99.90;;;;;;5098804;28;20100;-31
2024/01/28 06:27:24;;;;;;;12.82;5.00;;;1.90;99.90;;;;;;5099689;28;20478;-33
2024/01/28 06:29:49;;;;;;;7.05;4.78;;;2.00;99.90;;;;;;5099744;28;20041;-36
2024/01/28 06:32:15;;;;;;;12.10;6.00;;;1.90;99.90;;;;;;5099726;28;20496;-33
2024/01/28 06:34:40;;;;;;;6.97;4.93;;;2.00;99.90;;;;;;5099833;28;20515;-30
2024/01/28 06:37:06;;;;;;;9.02;4.60;;;1.90;99.90;;;;;;5099111;28;20138;-31
2024/01/28 06:39:34;;;;;;;10.13;4.75;;;1.90;99.90;;;;;;5099447;28;20132;-29
2024/01/28 06:42:00;;;;;;;10.50;5.47;;;1.90;99.90;;;;;;5100441;28;20031;-30
2024/01/28 06:44:26;;;;;;;10.85;5.38;;;1.90;99.90;;;;;;5099414;28;20019;-33
2024/01/28 06:46:51;;;;;;;9.57;5.03;;;1.90;99.90;;;;;;5098650;28;20819;-34
2024/01/28 06:49:17;;;;;;;17.20;7.07;;;1.90;99.90;;;;;;5099446;28;20016;-30
2024/01/28 06:51:43;;;;;;;8.82;5.03;;;1.90;99.90;;;;;;5099109;28;20035;-33
2024/01/28 06:54:10;;;;;;;9.10;4.85;;;1.90;99.90;;;;;;5099794;28;20020;-35
2024/01/28 06:56:36;;;;;;;8.15;4.50;;;1.90;99.90;;;;;;5099770;28;20177;-34
2024/01/28 06:59:04;;;;;;;10.15;4.88;;;1.90;99.90;;;;;;5101182;28;20027;-35
2024/01/28 07:01:29;;;;;;;8.93;4.28;;;1.90;99.90;;;;;;5103292;28;20030;-35
2024/01/28 07:03:55;;;;;;;7.75;4.30;;;1.90;99.90;;;;;;5103492;28;20024;-31
2024/01/28 07:06:21;;;;;;;11.70;4.50;;;1.80;99.90;;;;;;5102575;28;20034;-34
2024/01/28 07:08:47;;;;;;;7.50;4.50;;;1.90;99.90;;;;;;5104112;28;20453;-32
2024/01/28 07:11:12;;;;;;;10.15;4.78;;;1.80;99.90;;;;;;5102757;28;20124;-36
2024/01/28 07:13:38;;;;;;;10.10;5.28;;;1.80;99.90;;;;;;5102981;28;20028;-32
2024/01/28 07:16:05;;;;;;;8.05;4.85;;;1.80;99.90;;;;;;5103026;28;20389;-32
2024/01/28 07:18:30;;;;;;;8.75;5.32;;;1.80;99.90;;;;;;5102534;28;20031;-35
2024/01/28 07:20:56;;;;;;;7.57;4.50;;;1.80;99.90;;;;;;5103127;28;20136;-34
2024/01/28 07:23:21;;;;;;;8.57;4.82;;;1.80;99.90;;;;;;5102597;28;20084;-35
2024/01/28 07:25:47;;;;;;;7.45;4.60;;;1.90;99.90;;;;;;5103109;28;20032;-34
2024/01/28 07:28:12;;;;;;;8.98;4.82;;;1.80;99.90;;;;;;5103486;28;20108;-33
2024/01/28 07:30:38;;;;;;;7.85;4.88;;;1.90;99.90;;;;;;5103429;28;20055;-32
2024/01/28 07:33:07;;;;;;;9.82;4.50;;;1.90;99.90;;;;;;5102627;28;20122;-34
2024/01/28 07:35:33;;;;;;;10.65;5.22;;;1.90;99.90;;;;;;5103665;28;20023;-36
2024/01/28 07:38:03;;;;;;;10.18;4.88;;;1.90;99.90;;;;;;5102499;28;20045;-35
2024/01/28 07:40:29;;;;;;;11.35;4.50;;;2.00;99.90;;;;;;5102703;28;20070;-33
2024/01/28 07:42:55;;;;;;;12.77;4.60;;;2.00;99.90;;;;;;5103038;28;20131;-37
2024/01/28 07:45:21;;;;;;;10.05;5.30;;;2.00;99.90;;;;;;5103014;28;20031;-36
2024/01/28 07:47:47;;;;;;;8.70;5.47;;;2.10;99.90;;;;;;5102903;28;20119;-34
2024/01/28 07:50:12;;;;;;;10.98;5.43;;;2.10;99.90;;;;;;5102464;28;20581;-34
2024/01/28 07:52:38;;;;;;;11.27;6.00;;;2.20;99.90;;;;;;5102646;28;20019;-31
2024/01/28 07:55:05;;;;;;;12.10;5.85;;;2.20;99.90;;;;;;5102074;28;20020;-35
2024/01/28 07:57:30;;;;;;;8.25;5.40;;;2.20;99.90;;;;;;5102610;28;20020;-33
2024/01/28 07:59:57;;;;;;;13.30;6.32;;;2.30;99.90;;;;;;5102248;28;20513;-33
2024/01/28 08:02:22;;;;;;;11.15;5.32;;;2.30;99.90;;;;;;5101584;28;20027;-35
2024/01/28 08:04:48;;;;;;;11.05;5.05;;;2.40;99.90;;;;;;5102749;28;20027;-37
2024/01/28 08:07:14;;;;;;;8.20;5.18;;;2.40;99.90;;;;;;5102232;28;20565;-30
2024/01/28 08:09:41;;;;;;;7.00;4.50;;;2.40;99.90;;;;;;5102148;28;20020;-39
2024/01/28 08:12:07;;;;;;;6.95;4.82;;;2.50;99.90;;;;;;5103067;28;20104;-36
2024/01/28 08:14:35;;;;;;;9.10;4.40;;;2.50;99.90;;;;;;5101101;28;20642;-33
2024/01/28 08:17:01;;;;;;;8.68;4.85;;;2.50;99.90;;;;;;5102391;28;20108;-35
2024/01/28 08:19:27;;;;;;;9.77;5.80;;;2.60;99.90;;;;;;5101983;28;20024;-34
2024/01/28 08:21:52;;;;;;;7.03;4.25;;;2.60;99.90;;;;;;5101698;28;20043;-32
2024/01/28 08:24:18;;;;;;;6.88;4.25;;;2.60;99.90;;;;;;5101743;28;20023;-34
2024/01/28 08:26:43;;;;;;;8.50;4.20;;;2.60;99.90;;;;;;5102046;28;20028;-35
2024/01/28 08:29:09;;;;;;;8.27;4.65;;;2.60;99.90;;;;;;5101776;28;20067;-32
2024/01/28 08:31:34;;;;;;;7.95;4.72;;;2.60;99.90;;;;;;5101863;28;20104;-31
2024/01/28 08:34:00;;;;;;;9.93;5.43;;;2.60;99.90;;;;;;5101960;28;20038;-33
2024/01/28 08:36:26;;;;;;;10.70;4.50;;;2.60;99.90;;;;;;5100834;28;20161;-35
2024/01/28 08:38:52;;;;;;;10.27;4.40;;;2.60;99.90;;;;;;5101195;28;20035;-33
2024/01/28 08:41:17;;;;;;;7.43;4.32;;;2.60;99.90;;;;;;5101963;28;20030;-30
2024/01/28 08:43:44;;;;;;;6.20;4.30;;;2.60;99.90;;;;;;5101031;28;20020;-33
2024/01/28 08:46:10;;;;;;;8.10;4.43;;;2.60;99.90;;;;;;5101231;28;20039;-31
2024/01/28 08:48:35;;;;;;;11.45;4.47;;;2.60;99.90;;;;;;5101888;28;20438;-32
2024/01/28 08:51:01;;;;;;;8.13;4.80;;;2.60;99.90;;;;;;5100798;28;20077;-30
2024/01/28 08:53:27;;;;;;;7.00;3.80;;;2.60;99.90;;;;;;5101578;28;20023;-31
2024/01/28 08:55:52;;;;;;;9.00;4.70;;;2.60;99.90;;;;;;5101461;28;20039;-31
2024/01/28 08:58:21;;;;;;;6.72;4.15;;;2.70;99.90;;;;;;5100883;28;20032;-34
2024/01/28 09:00:47;;;;;;;7.97;4.20;;;2.70;99.90;;;;;;5101183;28;20030;-35
2024/01/28 09:03:12;;;;;;;7.75;4.40;;;2.70;99.90;;;;;;5101490;28;20024;-38
2024/01/28 09:05:38;;;;;;;7.70;3.97;;;2.80;99.90;;;;;;5100280;28;20015;-34
2024/01/28 09:08:07;;;;;;;7.03;4.05;;;2.80;99.90;;;;;;5101001;28;20625;-33
2024/01/28 09:10:33;;;;;;;6.22;4.00;;;2.80;99.90;;;;;;5100704;28;20024;-32
2024/01/28 09:12:58;;;;;;;6.88;5.10;;;2.90;99.90;;;;;;5100844;28;20031;-34
2024/01/28 09:15:24;;;;;;;10.70;5.10;;;2.90;99.90;;;;;;5099977;28;20051;-33
2024/01/28 09:17:50;;;;;;;11.25;4.97;;;2.90;99.90;;;;;;5100546;28;20100;-37
2024/01/28 09:20:15;;;;;;;8.10;5.30;;;3.00;99.90;;;;;;5100178;28;20023;-32
2024/01/28 09:22:41;;;;;;;8.77;5.05;;;3.00;99.90;;;;;;5100121;28;20138;-35
2024/01/28 09:25:07;;;;;;;6.65;4.70;;;3.00;99.90;;;;;;5099706;28;20110;-32
2024/01/28 09:27:32;;;;;;;10.15;4.70;;;3.10;99.90;;;;;;5099752;28;20036;-32
2024/01/28 09:29:58;;;;;;;9.80;4.63;;;3.10;99.90;;;;;;5100298;28;20031;-34
2024/01/28 09:32:24;;;;;;;7.65;4.35;;;3.10;99.90;;;;;;5099563;28;20716;-35
2024/01/28 09:34:51;;;;;;;7.85;4.00;;;3.20;99.90;;;;;;5100494;28;20085;-33
2024/01/28 09:37:17;;;;;;;6.80;3.95;;;3.20;99.90;;;;;;5099556;28;20651;-35
2024/01/28 09:39:43;;;;;;;7.65;4.15;;;3.30;99.90;;;;;;5099834;28;20103;-33
2024/01/28 09:42:18;;;;;;;7.72;4.30;;;3.30;99.90;;;;;;5100601;28;20835;-34
2024/01/28 09:44:44;;;;;;;5.43;3.58;;;3.30;99.90;;;;;;5100359;28;20115;-37
2024/01/28 09:47:10;;;;;;;6.60;3.85;;;3.40;99.90;;;;;;5099469;28;20572;-35
2024/01/28 09:49:40;;;;;;;4.55;3.38;;;3.50;99.90;;;;;;5099617;28;20027;-35
2024/01/28 09:52:10;;;;;;;4.63;3.20;;;3.50;99.90;;;;;;5099965;28;20023;-32
2024/01/28 09:54:37;;;;;;;5.45;3.30;;;3.60;99.90;;;;;;5099242;28;20081;-36
2024/01/28 09:57:05;;;;;;;5.85;3.47;;;3.60;99.90;;;;;;5099671;28;20051;-33
2024/01/28 09:59:36;;;;;;;4.90;3.58;;;3.60;99.90;;;;;;5099811;28;20836;-35
2024/01/28 10:02:03;;;;;;;7.63;3.70;;;3.70;99.90;;;;;;5099090;28;20027;-35
2024/01/28 10:04:30;;;;;;;7.22;3.53;;;3.70;99.90;;;;;;5099760;28;20030;-33
2024/01/28 10:06:59;;;;;;;5.95;3.40;;;3.80;99.90;;;;;;5099909;28;20039;-32
2024/01/28 10:09:26;;;;;;;6.63;3.70;;;3.80;99.90;;;;;;5100305;28;20054;-32
2024/01/28 10:11:52;;;;;;;6.38;3.10;;;3.90;99.90;;;;;;5100080;28;20059;-35
2024/01/28 10:14:18;;;;;;;4.68;2.90;;;3.90;99.90;;;;;;5097515;28;20151;-37
2024/01/28 10:16:48;;;;;;;4.93;2.92;;;4.00;99.90;;;;;;5098651;28;20071;-36
2024/01/28 10:19:14;;;;;;;4.97;3.10;;;4.00;99.90;;;;;;5098915;28;20042;-34
2024/01/28 10:21:40;;;;;;;6.55;3.03;;;4.00;99.90;;;;;;5098114;28;20469;-36
2024/01/28 10:24:08;;;;;;;5.20;3.15;;;4.10;99.90;;;;;;5098052;28;20483;-33
2024/01/28 10:26:34;;;;;;;5.93;2.90;;;4.20;99.90;;;;;;5097815;28;20040;-35
2024/01/28 10:29:02;;;;;;;4.65;2.70;;;4.20;99.90;;;;;;5098667;28;20108;-37
2024/01/28 10:31:29;;;;;;;5.28;3.20;;;4.30;99.90;;;;;;5100018;28;20031;-37
2024/01/28 10:33:54;;;;;;;6.13;3.05;;;4.30;99.90;;;;;;5099444;28;20027;-35
2024/01/28 10:36:21;;;;;;;5.35;3.40;;;4.40;99.90;;;;;;5099341;28;20467;-38
2024/01/28 10:38:46;;;;;;;6.10;3.67;;;4.40;99.90;;;;;;5100301;28;20852;-37
2024/01/28 10:41:21;;;;;;;4.60;3.20;;;4.50;99.90;;;;;;5099679;28;20356;-31
2024/01/28 10:44:07;;;;;;;5.35;3.13;;;4.50;99.90;;;;;;5099046;28;20553;-32
2024/01/28 10:46:37;;;;;;;4.10;3.05;;;4.60;99.90;;;;;;5099872;28;20036;-35
2024/01/28 10:49:05;;;;;;;5.00;2.78;;;4.60;99.90;;;;;;5099571;28;20110;-34
2024/01/28 10:51:35;;;;;;;6.20;3.50;;;4.70;99.90;;;;;;5097522;28;20110;-32
2024/01/28 10:54:07;;;;;;;5.70;3.50;;;4.70;99.90;;;;;;5097729;28;20051;-32
2024/01/28 10:56:33;;;;;;;5.55;3.00;;;4.80;99.90;;;;;;5097594;28;20539;-36
2024/01/28 10:58:59;;;;;;;5.32;3.38;;;4.80;99.90;;;;;;5097860;28;20449;-31
2024/01/28 11:01:26;;;;;;;5.35;3.70;;;4.90;99.90;;;;;;5098731;28;20031;-35
2024/01/28 11:03:53;;;;;;;6.30;3.10;;;4.90;99.90;;;;;;5097584;28;20023;-34
2024/01/28 11:06:19;;;;;;;5.80;2.67;;;5.00;99.90;;;;;;5098166;28;20106;-33
2024/01/28 11:08:45;;;;;;;3.17;2.70;;;5.00;99.90;;;;;;5100157;28;20031;-34
2024/01/28 11:11:12;;;;;;;5.97;4.35;;;5.00;99.90;;;;;;5098900;28;20114;-31
2024/01/28 11:13:38;;;;;;;5.35;2.70;;;5.10;99.90;;;;;;5098734;28;20031;-34
2024/01/28 11:16:07;;;;;;;3.78;2.13;;;5.10;99.90;;;;;;5098828;28;20093;-32
2024/01/28 11:18:33;;;;;;;3.50;2.60;;;5.20;99.90;;;;;;5099382;28;20023;-37
2024/01/28 11:21:12;;;;;;;3.25;2.15;;;5.20;99.90;;;;;;5099524;28;20373;-36
2024/01/28 11:23:47;;;;;;;3.58;2.53;;;5.20;99.90;;;;;;5098839;28;20548;-31
2024/01/28 11:26:19;;;;;;;6.97;2.50;;;5.30;99.90;;;;;;5096844;28;20054;-37
2024/01/28 11:28:49;;;;;;;4.38;2.42;;;5.40;99.90;;;;;;5098352;28;20775;-33
2024/01/28 11:31:33;;;;;;;3.30;2.42;;;5.40;99.90;;;;;;5098181;28;20028;-33
2024/01/28 11:34:19;;;;;;;3.90;2.40;;;5.40;99.90;;;;;;5097827;28;20023;-35
2024/01/28 11:36:52;;;;;;;2.67;2.00;;;5.40;99.90;;;;;;5094050;28;20028;-34
2024/01/28 11:39:30;;;;;;;3.60;2.10;;;5.50;99.90;;;;;;5098590;28;20058;-35
2024/01/28 11:41:55;;;;;;;3.08;2.22;;;5.50;99.90;;;;;;5094868;28;20844;-36
2024/01/28 11:44:22;;;;;;;3.97;2.40;;;5.60;99.90;;;;;;5099960;28;20036;-36
2024/01/28 11:46:52;;;;;;;3.15;2.42;;;5.60;99.90;;;;;;5102440;28;20039;-34
2024/01/28 11:49:17;;;;;;;3.80;2.50;;;5.70;99.90;;;;;;5102783;28;20683;-35
2024/01/28 11:51:43;;;;;;;3.28;2.58;;;5.70;99.90;;;;;;5103305;28;20027;-36
2024/01/28 11:54:09;;;;;;;5.75;2.85;;;5.70;99.90;;;;;;5102156;28;20039;-31
2024/01/28 11:56:35;;;;;;;4.00;2.78;;;5.80;99.90;;;;;;5102460;28;20028;-36
2024/01/28 11:59:03;;;;;;;4.70;3.35;;;5.80;99.90;;;;;;5103057;28;20430;-36
2024/01/28 12:01:32;;;;;;;5.85;3.50;;;5.80;99.90;;;;;;5102490;28;20475;-35
2024/01/28 12:03:58;;;;;;;5.28;3.90;;;5.90;99.90;;;;;;5102859;28;20041;-33
2024/01/28 12:06:29;;;;;;;4.22;3.05;;;6.00;99.90;;;;;;5102512;28;20104;-36
2024/01/28 12:08:56;;;;;;;7.10;3.50;;;6.00;99.90;;;;;;5102132;28;20027;-36
2024/01/28 12:11:28;;;;;;;6.50;3.50;;;6.10;99.90;;;;;;5102190;28;20031;-38
2024/01/28 12:13:55;;;;;;;6.50;3.90;;;6.10;99.90;;;;;;5102210;28;20028;-36
2024/01/28 12:16:24;;;;;;;7.78;3.67;;;6.20;99.90;;;;;;5102143;28;20031;-37
2024/01/28 12:18:54;;;;;;;6.50;3.75;;;6.20;99.90;;;;;;5102399;28;20208;-36
2024/01/28 12:21:25;;;;;;;5.57;3.40;;;6.20;99.90;;;;;;5101746;28;20095;-33
2024/01/28 12:23:59;;;;;;;8.07;3.60;;;6.30;99.90;;;;;;5101885;28;20059;-34
2024/01/28 12:26:25;;;;;;;6.65;3.75;;;6.30;99.90;;;;;;5102009;28;20051;-35
2024/01/28 12:28:52;;;;;;;4.82;3.50;;;6.40;99.90;;;;;;5101826;28;20088;-34
2024/01/28 12:31:21;;;;;;;5.15;3.50;;;6.40;99.90;;;;;;5101189;28;20015;-36
2024/01/28 12:33:48;;;;;;;6.18;3.15;;;6.40;99.90;;;;;;5102133;28;20034;-35
2024/01/28 12:36:14;;;;;;;4.47;2.97;;;6.50;99.90;;;;;;5101441;28;20015;-36
2024/01/28 12:38:42;;;;;;;4.35;3.20;;;6.50;99.90;;;;;;5101957;28;20073;-36
2024/01/28 12:41:08;;;;;;;6.53;3.78;;;6.60;99.90;;;;;;5101878;28;20031;-33
2024/01/28 12:43:34;;;;;;;5.72;3.42;;;6.60;99.90;;;;;;5100470;28;20024;-32
2024/01/28 12:46:00;;;;;;;6.30;4.00;;;6.70;99.90;;;;;;5101737;28;20023;-33
2024/01/28 12:48:26;;;;;;;5.47;4.10;;;6.80;99.90;;;;;;5101270;28;20075;-31
2024/01/28 12:50:52;;;;;;;7.07;3.92;;;6.80;99.90;;;;;;5101250;28;20019;-33